Time;durP1;ratioP1;P1;durP2;ratioP2;P2;SDS_P1;SDS_P2;PMS_P1;PMS_P2;Temp;Humidity;BMP_temperature;BMP_pressure;BME280_temperature;BME280_humidity;BME280_pressure;Samples;Min_cycle;Max_cycle;Signal;HPM_P1;HPM_P2
2021/06/09 04:33:38;;;;;;;6.70;3.55;;;;;;;16.58;59.25;100407.84;5187555;27;20341;-71
2021/06/09 04:36:04;;;;;;;9.57;3.83;;;;;;;16.72;59.64;100406.00;5133779;27;20031;-69
2021/06/09 04:38:29;;;;;;;5.28;3.63;;;;;;;16.91;59.64;100410.59;5151866;27;20042;-71
2021/06/09 04:40:55;;;;;;;6.03;3.70;;;;;;;17.13;59.74;100405.00;5151721;27;30676;-71
2021/06/09 04:43:23;;;;;;;9.50;4.00;;;;;;;17.36;59.67;100404.56;5152381;27;34078;-71
2021/06/09 04:45:49;;;;;;;6.03;3.50;;;;;;;17.58;59.57;100399.72;5151606;27;20035;-70
2021/06/09 04:48:15;;;;;;;6.97;3.83;;;;;;;17.76;59.51;100399.06;5134486;27;20031;-69
2021/06/09 04:50:41;;;;;;;5.25;3.42;;;;;;;17.97;59.41;100409.78;5152672;27;20876;-69
2021/06/09 04:53:10;;;;;;;5.82;3.67;;;;;;;18.21;59.42;100411.75;5153353;27;20444;-68
2021/06/09 04:55:39;;;;;;;9.13;3.45;;;;;;;18.46;59.17;100410.19;5153330;27;20575;-69
2021/06/09 04:58:04;;;;;;;8.95;3.53;;;;;;;18.64;58.65;100414.81;5152894;27;20104;-71
2021/06/09 05:00:29;;;;;;;7.55;3.80;;;;;;;18.82;58.28;100412.22;5153224;27;20027;-70
2021/06/09 05:02:55;;;;;;;6.63;3.85;;;;;;;18.97;57.98;100411.09;5152002;27;38441;-70
2021/06/09 05:05:20;;;;;;;10.02;3.70;;;;;;;19.13;57.88;100417.81;5152254;27;38619;-69
2021/06/09 05:07:46;;;;;;;7.13;3.60;;;;;;;19.22;57.40;100414.59;5152007;27;37578;-68
2021/06/09 05:10:11;;;;;;;6.38;4.13;;;;;;;19.34;56.88;100417.41;5150743;27;36088;-70
2021/06/09 05:12:51;;;;;;;7.15;3.80;;;;;;;19.42;56.37;100424.38;5151485;27;20541;-72
2021/06/09 05:15:16;;;;;;;6.32;3.22;;;;;;;19.44;55.75;100419.59;5152287;27;20479;-69
2021/06/09 05:17:46;;;;;;;7.20;3.70;;;;;;;19.46;56.14;100420.19;5133849;27;23658;-71
2021/06/09 05:20:21;;;;;;;17.27;12.88;;;;;;;19.53;55.49;100429.06;5134767;27;20038;-70
2021/06/09 05:22:53;;;;;;;24.63;20.05;;;;;;;19.58;55.33;100426.50;5152355;27;20494;-69
2021/06/09 05:25:19;;;;;;;12.82;10.10;;;;;;;19.64;55.15;100423.94;5134470;27;20464;-72
2021/06/09 05:27:44;;;;;;;9.45;6.28;;;;;;;19.83;55.47;100430.22;5151317;27;20027;-71
2021/06/09 05:30:10;;;;;;;16.65;9.45;;;;;;;20.00;55.45;100425.00;5150895;27;20387;-68
2021/06/09 05:32:36;;;;;;;14.13;11.20;;;;;;;20.21;55.07;100427.22;5132553;27;20051;-71
2021/06/09 05:35:02;;;;;;;20.42;16.20;;;;;;;20.36;54.80;100442.25;5133504;27;20141;-71
2021/06/09 05:37:27;;;;;;;18.92;14.73;;;;;;;20.53;54.22;100432.44;5150494;27;20133;-73
2021/06/09 05:39:57;;;;;;;9.77;7.82;;;;;;;20.70;53.46;100427.22;5132397;27;36999;-72
2021/06/09 05:42:23;;;;;;;11.35;6.07;;;;;;;20.79;53.57;100425.81;5151094;27;20030;-72
2021/06/09 05:44:48;;;;;;;8.30;5.55;;;;;;;20.95;53.44;100423.47;5120398;27;29833;-71
2021/06/09 05:47:14;;;;;;;5.93;4.25;;;;;;;21.09;52.40;100422.22;5137116;27;20034;-70
2021/06/09 05:49:39;;;;;;;7.13;3.90;;;;;;;21.07;51.95;100426.22;5137382;27;20077;-70
2021/06/09 05:52:05;;;;;;;6.95;3.50;;;;;;;21.15;52.16;100434.00;5138231;27;20031;-70
2021/06/09 05:54:37;;;;;;;5.22;3.28;;;;;;;21.32;52.03;100434.09;5138091;27;20039;-70
2021/06/09 05:57:04;;;;;;;7.63;4.07;;;;;;;21.36;51.09;100435.28;5137775;27;20420;-70
2021/06/09 05:59:29;;;;;;;5.38;3.40;;;;;;;21.41;51.18;100434.59;5138086;27;20109;-70
2021/06/09 06:01:55;;;;;;;10.68;3.50;;;;;;;21.41;50.43;100431.88;5137005;27;20036;-70
2021/06/09 06:04:20;;;;;;;7.78;2.95;;;;;;;21.34;49.89;100437.41;5119726;27;20585;-68
2021/06/09 06:06:47;;;;;;;6.15;3.00;;;;;;;21.25;49.45;100446.94;5137651;27;20032;-70
2021/06/09 06:09:12;;;;;;;6.40;3.15;;;;;;;21.19;49.98;100443.31;5137836;27;20138;-70
2021/06/09 06:11:38;;;;;;;7.63;2.92;;;;;;;21.25;49.68;100442.34;5135500;27;40422;-70
2021/06/09 06:14:05;;;;;;;9.77;3.40;;;;;;;21.29;49.53;100435.41;5135718;27;27485;-71
2021/06/09 06:16:31;;;;;;;6.18;3.20;;;;;;;21.37;49.54;100436.94;5137436;27;20848;-68
2021/06/09 06:18:56;;;;;;;4.90;3.20;;;;;;;21.37;49.19;100436.13;5137158;27;20035;-67
2021/06/09 06:21:22;;;;;;;8.65;3.67;;;;;;;21.38;48.87;100444.00;5135865;27;20119;-70
2021/06/09 06:23:47;;;;;;;5.68;3.53;;;;;;;21.36;48.65;100439.88;5137227;27;29198;-70
2021/06/09 06:26:17;;;;;;;5.95;3.03;;;;;;;21.38;48.89;100448.59;5118593;27;36349;-70
2021/06/09 06:28:42;;;;;;;5.25;3.60;;;;;;;21.43;48.66;100444.13;5138189;27;20027;-73
2021/06/09 06:31:11;;;;;;;6.18;4.05;;;;;;;21.43;48.22;100448.72;5119647;27;20020;-74
2021/06/09 06:33:37;;;;;;;7.25;3.67;;;;;;;21.43;48.19;100435.16;5138208;27;20693;-74
2021/06/09 06:36:03;;;;;;;5.88;3.72;;;;;;;21.53;48.42;100440.84;5119213;27;20039;-73
2021/06/09 06:38:29;;;;;;;8.20;3.85;;;;;;;21.62;48.32;100442.16;5136032;27;20495;-74
2021/06/09 06:40:54;;;;;;;8.45;3.60;;;;;;;21.71;48.42;100442.59;5137980;27;20034;-73
2021/06/09 06:43:20;;;;;;;5.65;3.85;;;;;;;21.77;48.01;100446.25;5119425;27;20035;-75
2021/06/09 06:45:45;;;;;;;8.45;3.38;;;;;;;21.87;48.14;100442.91;5119699;27;20019;-76
2021/06/09 06:48:11;;;;;;;5.35;3.65;;;;;;;22.01;48.27;100441.59;5136619;27;21244;-77
2021/06/09 06:50:37;;;;;;;7.97;4.18;;;;;;;22.13;47.70;100439.66;5118062;27;36066;-74
2021/06/09 06:53:05;;;;;;;6.68;3.45;;;;;;;22.25;47.77;100446.94;5119215;27;20063;-72
2021/06/09 06:55:31;;;;;;;7.53;3.65;;;;;;;22.44;48.07;100445.72;5135925;27;20043;-68
2021/06/09 06:57:56;;;;;;;6.97;3.60;;;;;;;22.64;47.93;100442.53;5136017;27;20043;-76
2021/06/09 07:00:22;;;;;;;6.95;3.00;;;;;;;22.76;47.35;100447.09;5118977;27;20396;-72
2021/06/09 07:02:48;;;;;;;5.97;3.50;;;;;;;22.81;46.39;100444.44;5122610;27;20060;-69
2021/06/09 07:05:14;;;;;;;5.70;3.10;;;;;;;22.78;46.28;100445.75;5117500;27;20038;-74
2021/06/09 07:07:40;;;;;;;7.43;3.38;;;;;;;22.91;46.93;100455.50;5118464;27;20411;-73
2021/06/09 07:10:07;;;;;;;5.35;3.22;;;;;;;23.15;46.90;100447.22;5137082;27;20153;-73
2021/06/09 07:12:35;;;;;;;5.20;3.60;;;;;;;23.24;45.79;100447.63;5135383;27;20491;-73
2021/06/09 07:15:00;;;;;;;7.25;3.30;;;;;;;23.25;45.81;100455.53;5135707;27;20037;-75
2021/06/09 07:17:26;;;;;;;9.40;4.47;;;;;;;23.42;45.93;100455.50;5135197;27;27861;-74
2021/06/09 07:19:51;;;;;;;7.18;3.33;;;;;;;23.63;45.94;100453.06;5117319;27;41890;-72
2021/06/09 07:22:16;;;;;;;5.97;3.40;;;;;;;23.82;46.00;100457.16;5134898;27;30246;-71
2021/06/09 07:24:42;;;;;;;7.55;3.92;;;;;;;23.89;44.57;100456.97;5134557;27;33010;-67
2021/06/09 07:27:08;;;;;;;6.05;3.65;;;;;;;23.84;44.37;100456.91;5135183;27;20116;-76
2021/06/09 07:29:34;;;;;;;9.20;3.50;;;;;;;23.94;44.70;100457.06;5134758;27;20030;-77
2021/06/09 07:31:59;;;;;;;7.20;3.22;;;;;;;24.19;44.61;100466.59;5117425;27;20043;-72
2021/06/09 07:34:25;;;;;;;5.28;3.30;;;;;;;24.17;42.55;100455.97;5134712;27;20103;-74
2021/06/09 07:36:56;;;;;;;6.57;3.00;;;;;;;24.26;43.39;100467.25;5133220;27;20548;-71
2021/06/09 07:39:35;;;;;;;4.53;2.78;;;;;;;24.46;43.49;100460.38;5132490;27;20487;-73
2021/06/09 07:42:08;;;;;;;4.97;3.20;;;;;;;24.78;43.53;100460.44;5117500;27;20550;-72
2021/06/09 07:44:39;;;;;;;9.43;4.30;;;;;;;25.22;43.77;100467.63;5134726;27;20024;-75
2021/06/09 07:47:05;;;;;;;9.60;2.97;;;;;;;25.52;42.27;100458.03;5118360;27;20775;-74
2021/06/09 07:49:31;;;;;;;5.70;2.38;;;;;;;25.71;41.17;100460.31;5134696;27;20031;-74
2021/06/09 07:51:56;;;;;;;4.80;2.60;;;;;;;25.68;40.96;100454.31;5135725;27;22785;-73
2021/06/09 07:54:22;;;;;;;3.97;2.67;;;;;;;25.62;39.20;100452.63;5117730;27;20027;-78
2021/06/09 07:56:47;;;;;;;6.25;2.45;;;;;;;25.45;38.96;100457.44;5131211;27;34492;-74
2021/06/09 07:59:13;;;;;;;5.50;2.55;;;;;;;25.48;40.07;100456.91;5115570;27;20161;-76
2021/06/09 08:01:43;;;;;;;4.95;2.05;;;;;;;25.59;39.27;100458.63;5134158;27;20383;-72
2021/06/09 08:04:09;;;;;;;;;;;;;;;25.67;39.48;100452.66;5134835;27;20054;-71
2021/06/09 08:06:34;;;;;;;3.95;2.15;;;;;;;25.85;39.09;100458.75;5133728;27;20036;-71
2021/06/09 08:09:00;;;;;;;2.85;1.95;;;;;;;25.91;37.93;100454.13;5131609;27;39676;-72
2021/06/09 08:11:26;;;;;;;4.20;2.00;;;;;;;25.78;37.42;100460.88;5133046;27;20134;-73
2021/06/09 08:13:51;;;;;;;5.45;1.88;;;;;;;25.83;37.77;100471.81;5133076;27;20436;-73
2021/06/09 08:16:18;;;;;;;3.60;2.08;;;;;;;25.95;37.58;100466.97;5133143;27;20035;-74
2021/06/09 08:18:43;;;;;;;3.05;2.10;;;;;;;26.04;36.94;100461.03;5114061;27;20027;-77
2021/06/09 08:21:12;;;;;;;6.10;2.22;;;;;;;26.07;36.07;100474.16;5114246;27;20325;-76
2021/06/09 08:23:37;;;;;;;2.28;1.67;;;;;;;26.18;36.28;100470.38;5112987;27;20036;-76
2021/06/09 08:26:03;;;;;;;5.65;1.77;;;;;;;26.35;36.64;100465.53;5095380;28;20064;-74
2021/06/09 08:28:29;;;;;;;2.20;1.50;;;;;;;26.45;35.98;100469.34;5113436;28;20033;-74
2021/06/09 08:30:55;;;;;;;6.13;1.98;;;;;;;26.51;35.71;100473.75;5114738;27;20028;-74
2021/06/09 08:33:21;;;;;;;3.35;1.67;;;;;;;26.67;35.30;100466.41;5114498;28;20432;-75
2021/06/09 08:35:46;;;;;;;2.50;1.42;;;;;;;26.81;34.73;100472.19;5116956;27;24018;-75
2021/06/09 08:38:11;;;;;;;3.22;1.73;;;;;;;26.86;35.68;100472.19;5135212;27;20023;-77
2021/06/09 08:40:37;;;;;;;4.30;1.95;;;;;;;26.98;34.45;100464.53;5133977;27;33870;-75
2021/06/09 08:43:03;;;;;;;4.88;1.85;;;;;;;26.86;34.28;100472.19;5134072;27;20472;-74
2021/06/09 08:45:29;;;;;;;5.13;1.85;;;;;;;26.97;34.67;100471.09;5117238;27;20460;-74
2021/06/09 08:47:54;;;;;;;7.30;1.92;;;;;;;27.29;34.64;100461.75;5117570;27;20102;-74
2021/06/09 08:50:20;;;;;;;3.45;1.70;;;;;;;27.50;33.79;100457.13;5134731;27;31405;-74
2021/06/09 08:52:47;;;;;;;3.80;1.58;;;;;;;27.66;33.64;100465.28;5134471;27;20031;-72
2021/06/09 08:55:12;;;;;;;2.40;1.63;;;;;;;27.92;33.43;100457.78;5131183;27;20036;-69
2021/06/09 08:57:38;;;;;;;2.58;1.42;;;;;;;28.13;33.03;100461.28;5134639;27;29435;-73
2021/06/09 09:00:05;;;;;;;2.67;1.52;;;;;;;28.44;33.92;100460.28;5116927;27;20066;-74
2021/06/09 09:02:30;;;;;;;5.63;1.50;;;;;;;28.72;32.82;100457.94;5076315;27;20032;-74
2021/06/09 09:04:56;;;;;;;2.70;1.52;;;;;;;28.86;31.42;100469.91;5133631;27;39374;-73
2021/06/09 09:07:24;;;;;;;4.82;1.38;;;;;;;28.93;31.68;100477.81;5116259;27;23049;-74
2021/06/09 09:09:49;;;;;;;3.17;1.30;;;;;;;29.09;31.46;100467.50;5134834;27;20036;-72
2021/06/09 09:12:15;;;;;;;1.80;1.17;;;;;;;29.04;29.95;100471.94;5133836;27;20028;-73
2021/06/09 09:14:40;;;;;;;5.00;1.58;;;;;;;28.87;29.95;100477.03;5135054;27;21229;-72
2021/06/09 09:17:08;;;;;;;3.03;1.20;;;;;;;28.87;30.39;100460.56;5133040;27;39370;-71
2021/06/09 09:19:36;;;;;;;3.65;1.35;;;;;;;28.88;29.99;100470.41;5135998;27;20452;-71
2021/06/09 09:22:01;;;;;;;3.17;1.20;;;;;;;29.17;29.92;100472.38;5136479;27;20115;-72
2021/06/09 09:24:47;;;;;;;2.03;1.10;;;;;;;29.28;28.88;100473.97;5138239;27;20035;-76
2021/06/09 09:27:17;;;;;;;2.55;1.25;;;;;;;29.34;28.68;100474.72;5138350;27;20034;-72
2021/06/09 09:29:58;;;;;;;;;;;;;;;29.50;29.38;100483.63;5138766;27;20023;-72
2021/06/09 09:32:23;;;;;;;2.35;1.20;;;;;;;29.62;27.83;100481.28;5138071;27;19923;-72
2021/06/09 09:34:50;;;;;;;4.03;1.05;;;;;;;29.69;27.54;100476.28;5137420;27;40065;-73
2021/06/09 09:37:17;;;;;;;2.40;1.33;;;;;;;29.86;26.83;100475.00;5137470;27;20059;-71
2021/06/09 09:39:46;;;;;;;3.97;1.30;;;;;;;29.83;26.85;100472.81;5138355;27;20023;-73
2021/06/09 09:42:37;;;;;;;2.00;1.10;;;;;;;29.85;26.88;100473.38;5136405;27;20032;-72
2021/06/09 09:45:29;;;;;;;3.40;1.23;;;;;;;30.07;27.07;100480.25;5135247;27;29616;-74
2021/06/09 09:48:03;;;;;;;3.38;0.82;;;;;;;29.82;24.49;100479.41;5138292;27;20119;-74
2021/06/09 09:50:42;;;;;;;3.10;0.82;;;;;;;29.59;25.07;100486.53;5137784;27;20031;-71
2021/06/09 09:53:22;;;;;;;2.70;1.07;;;;;;;29.71;25.66;100485.00;5137973;27;20801;-69
2021/06/09 09:56:03;;;;;;;3.30;0.90;;;;;;;29.99;24.50;100474.31;5137695;27;20046;-71
2021/06/09 09:58:30;;;;;;;3.75;1.00;;;;;;;29.98;24.58;100472.66;5137944;27;20024;-70
2021/06/09 10:01:08;;;;;;;1.63;0.80;;;;;;;30.15;24.34;100477.66;5137970;27;20115;-72
2021/06/09 10:03:36;;;;;;;1.48;0.77;;;;;;;30.27;24.29;100471.72;5137600;27;20039;-70
2021/06/09 10:06:34;;;;;;;4.10;1.20;;;;;;;30.18;23.67;100471.59;5136563;27;20032;-70
2021/06/09 10:09:25;;;;;;;1.30;0.90;;;;;;;30.09;23.31;100472.53;5137099;27;20496;-71
2021/06/09 10:11:53;;;;;;;2.88;1.00;;;;;;;30.08;22.70;100470.91;5138082;27;20042;-73
2021/06/09 10:14:26;;;;;;;3.00;1.00;;;;;;;30.20;22.75;100485.81;5137629;27;20399;-70
2021/06/09 10:17:05;;;;;;;4.68;1.08;;;;;;;30.28;23.15;100472.53;5137727;27;20080;-69
2021/06/09 10:19:56;;;;;;;4.88;1.00;;;;;;;30.26;22.68;100478.31;5136779;27;20031;-71
2021/06/09 10:22:23;;;;;;;3.08;1.38;;;;;;;30.47;22.58;100478.06;5128893;27;20047;-72
2021/06/09 10:24:56;;;;;;;1.45;0.90;;;;;;;30.35;21.88;100473.81;5082173;28;20029;-73
2021/06/09 10:27:37;;;;;;;2.42;0.90;;;;;;;30.32;22.40;100479.91;5117287;27;20055;-74
2021/06/09 10:30:23;;;;;;;1.58;0.80;;;;;;;30.24;21.78;100477.81;5117234;27;20063;-72
2021/06/09 10:32:55;;;;;;;1.10;0.60;;;;;;;29.97;21.27;100478.44;5099257;28;20062;-71
2021/06/09 10:35:22;;;;;;;2.58;0.70;;;;;;;29.80;21.46;100476.13;5129049;27;20051;-71
2021/06/09 10:37:47;;;;;;;3.10;0.90;;;;;;;29.75;21.56;100476.22;5120502;27;20499;-71
2021/06/09 10:40:16;;;;;;;4.68;1.05;;;;;;;29.74;21.48;100475.38;5133456;27;20051;-69
2021/06/09 10:42:42;;;;;;;1.75;0.93;;;;;;;29.76;21.65;100470.44;5134190;27;20400;-70
2021/06/09 10:45:09;;;;;;;2.20;0.77;;;;;;;29.98;22.08;100478.16;5133114;27;20032;-69
2021/06/09 10:47:34;;;;;;;2.20;0.90;;;;;;;30.34;22.20;100472.16;5133457;27;20099;-69
2021/06/09 10:50:00;;;;;;;3.92;1.13;;;;;;;30.52;22.23;100467.00;5115457;27;20031;-71
2021/06/09 10:52:26;;;;;;;4.35;1.13;;;;;;;30.48;21.87;100463.22;5116507;27;20026;-71
2021/06/09 10:54:51;;;;;;;2.92;1.20;;;;;;;30.61;21.63;100467.97;5135234;27;20032;-71
2021/06/09 10:57:16;;;;;;;4.68;1.33;;;;;;;30.65;22.13;100462.69;5134791;27;37310;-70
2021/06/09 10:59:42;;;;;;;2.00;1.00;;;;;;;30.78;22.00;100461.91;5136438;27;34650;-71
2021/06/09 11:02:16;;;;;;;3.85;1.55;;;;;;;30.97;22.08;100452.81;5136800;27;20039;-68
2021/06/09 11:04:44;;;;;;;4.88;1.10;;;;;;;31.15;21.80;100457.50;5136193;27;20024;-68
2021/06/09 11:07:32;;;;;;;3.40;1.00;;;;;;;31.31;21.82;100454.47;5136631;27;20553;-73
2021/06/09 11:09:59;;;;;;;2.88;0.80;;;;;;;31.38;21.64;100455.69;5136838;27;20028;-72
2021/06/09 11:12:28;;;;;;;3.97;0.90;;;;;;;31.14;20.99;100457.78;5136615;27;20027;-69
2021/06/09 11:14:55;;;;;;;6.75;1.20;;;;;;;31.02;21.31;100461.81;5135424;27;20704;-67
2021/06/09 11:17:33;;;;;;;3.20;0.85;;;;;;;30.84;20.93;100454.44;5136421;27;20028;-71
2021/06/09 11:20:18;;;;;;;1.40;0.90;;;;;;;30.63;21.01;100459.41;5135197;27;20024;-71
2021/06/09 11:22:46;;;;;;;2.75;0.65;;;;;;;30.61;20.69;100459.72;5135965;27;20071;-70
2021/06/09 11:25:16;;;;;;;1.70;0.90;;;;;;;30.46;20.95;100449.78;5135208;27;20031;-69
2021/06/09 11:27:54;;;;;;;4.70;1.00;;;;;;;30.53;21.55;100447.47;5135799;27;20148;-69
2021/06/09 11:30:22;;;;;;;1.75;0.70;;;;;;;30.64;21.05;100444.56;5136431;27;20036;-69
2021/06/09 11:32:48;;;;;;;7.82;1.00;;;;;;;30.35;20.83;100449.06;5136003;27;20075;-69
2021/06/09 11:35:13;;;;;;;5.28;0.90;;;;;;;30.38;20.97;100442.97;5135918;27;24810;-69
2021/06/09 11:37:39;;;;;;;1.80;0.80;;;;;;;30.60;21.45;100449.03;5135881;27;20024;-70
2021/06/09 11:40:05;;;;;;;3.92;0.95;;;;;;;30.61;20.94;100443.22;5136491;27;20072;-70
2021/06/09 11:42:30;;;;;;;4.55;0.90;;;;;;;30.33;20.52;100440.31;5133964;27;20111;-68
2021/06/09 11:44:56;;;;;;;1.95;0.90;;;;;;;30.09;20.47;100445.06;5136194;27;20058;-70
2021/06/09 11:47:26;;;;;;;2.20;1.38;;;;;;;30.02;21.11;100443.50;5135825;27;20135;-67
2021/06/09 11:49:52;;;;;;;;;;;;;;;30.03;21.14;100439.63;5136569;27;20023;-68
2021/06/09 11:52:17;;;;;;;1.48;0.75;;;;;;;30.03;21.02;100442.38;5136296;27;19922;-70
2021/06/09 11:54:43;;;;;;;1.88;0.88;;;;;;;30.01;20.99;100428.13;5134517;27;20028;-70
2021/06/09 11:57:17;;;;;;;3.30;1.13;;;;;;;29.78;20.70;100428.94;5135997;27;20429;-69
2021/06/09 11:59:42;;;;;;;2.58;1.17;;;;;;;29.72;21.32;100417.22;5135257;27;20099;-71
2021/06/09 12:02:15;;;;;;;1.63;0.90;;;;;;;29.65;20.98;100420.31;5134495;27;20028;-70
2021/06/09 12:04:44;;;;;;;4.30;1.15;;;;;;;29.57;21.36;100426.44;5135709;27;20159;-70
2021/06/09 12:07:11;;;;;;;4.28;1.13;;;;;;;29.74;22.09;100414.19;5135654;27;20035;-71
2021/06/09 12:09:41;;;;;;;2.00;1.10;;;;;;;29.94;21.73;100413.94;5134276;27;20031;-70
2021/06/09 12:12:16;;;;;;;2.67;1.02;;;;;;;30.08;22.15;100399.47;5136033;27;20492;-70
2021/06/09 12:14:46;;;;;;;5.28;1.23;;;;;;;30.17;21.74;100398.50;5134321;27;20027;-68
2021/06/09 12:17:33;;;;;;;4.72;1.10;;;;;;;30.17;21.56;100416.94;5135867;27;20028;-68
2021/06/09 12:20:16;;;;;;;3.45;1.05;;;;;;;29.93;21.50;100401.31;5134495;27;20071;-71
2021/06/09 12:22:51;;;;;;;1.52;1.13;;;;;;;29.80;21.35;100399.25;5135926;27;20046;-70
2021/06/09 12:25:24;;;;;;;3.45;1.10;;;;;;;29.66;21.89;100402.75;5134484;27;20484;-68
2021/06/09 12:28:03;;;;;;;2.38;0.90;;;;;;;29.79;22.07;100403.13;5135486;27;20020;-68
2021/06/09 12:30:28;;;;;;;4.88;1.27;;;;;;;29.94;22.15;100396.66;5135443;27;20039;-68
2021/06/09 12:32:54;;;;;;;2.75;1.10;;;;;;;30.00;22.16;100395.47;5135202;27;20070;-68
2021/06/09 12:35:21;;;;;;;2.67;1.92;;;;;;;30.01;22.35;100389.66;5135166;27;20046;-68
2021/06/09 12:37:56;;;;;;;2.60;1.00;;;;;;;29.99;22.02;100386.41;5115132;27;20032;-68
2021/06/09 12:40:26;;;;;;;2.13;1.20;;;;;;;29.99;22.76;100386.41;5115228;27;20032;-69
2021/06/09 12:42:57;;;;;;;7.95;1.27;;;;;;;30.02;22.10;100390.50;5115293;27;20042;-69
2021/06/09 12:45:24;;;;;;;4.22;1.27;;;;;;;30.12;22.29;100386.78;5114744;28;20036;-69
2021/06/09 12:47:49;;;;;;;1.42;0.77;;;;;;;30.13;22.23;100377.44;5114646;27;20050;-67
2021/06/09 12:50:21;;;;;;;1.92;1.10;;;;;;;30.08;22.23;100374.75;5122049;27;32228;-70
2021/06/09 12:52:51;;;;;;;4.78;0.95;;;;;;;30.03;22.40;100370.97;5135759;27;20067;-71
2021/06/09 12:55:18;;;;;;;3.55;1.00;;;;;;;29.78;22.29;100376.78;5121084;27;20038;-67
2021/06/09 12:57:44;;;;;;;2.38;1.00;;;;;;;29.79;22.94;100376.47;5138606;27;20043;-68
2021/06/09 13:00:31;;;;;;;1.88;0.93;;;;;;;29.61;22.14;100375.34;5137473;27;20495;-69
2021/06/09 13:03:21;;;;;;;3.92;1.27;;;;;;;29.36;22.22;100373.72;5137708;27;20028;-69
2021/06/09 13:06:08;;;;;;;4.63;1.02;;;;;;;29.16;22.74;100363.78;5138689;27;20058;-70
2021/06/09 13:08:43;;;;;;;1.45;1.00;;;;;;;29.34;23.26;100360.28;5138524;27;20111;-69
2021/06/09 13:58:03;;;;;;;3.05;1.20;;;;;;;27.98;24.64;100329.91;5134344;27;20352;-72
2021/06/09 14:00:30;;;;;;;1.85;0.95;;;;;;;28.01;24.82;100321.16;5129609;27;20042;-74
2021/06/09 14:02:55;;;;;;;2.90;1.45;;;;;;;28.10;25.10;100321.38;5129451;27;20050;-72
2021/06/09 14:05:22;;;;;;;2.47;1.40;;;;;;;28.13;24.81;100332.59;5130856;27;20156;-73
2021/06/09 14:07:57;;;;;;;3.83;1.20;;;;;;;28.22;24.83;100319.09;5128513;27;20027;-72
2021/06/09 14:10:32;;;;;;;5.32;2.63;;;;;;;28.23;24.76;100320.75;5126188;27;20085;-69
2021/06/09 14:12:58;;;;;;;1.95;1.00;;;;;;;28.13;24.45;100309.84;5132436;27;20435;-70
2021/06/09 14:15:28;;;;;;;1.63;0.90;;;;;;;28.00;24.26;100319.53;5132156;27;20028;-71
2021/06/09 14:17:54;;;;;;;1.40;1.10;;;;;;;27.92;24.52;100314.63;5130871;27;20024;-69
2021/06/09 14:20:21;;;;;;;4.20;2.17;;;;;;;27.84;24.66;100314.13;5128726;27;20433;-71
2021/06/09 14:22:49;;;;;;;3.28;1.30;;;;;;;27.75;24.34;100299.41;5131339;27;20111;-69
2021/06/09 14:25:22;;;;;;;2.40;1.30;;;;;;;27.50;24.29;100303.06;5131775;27;20482;-72
2021/06/09 14:28:10;;;;;;;5.00;1.30;;;;;;;27.42;24.63;100301.75;5130604;27;20109;-71
2021/06/09 14:30:38;;;;;;;5.45;1.13;;;;;;;27.42;25.02;100309.97;5131180;27;20031;-71
2021/06/09 14:33:27;;;;;;;1.50;1.20;;;;;;;27.59;25.34;100306.88;5131922;27;20078;-70
2021/06/09 14:36:00;;;;;;;2.72;1.33;;;;;;;27.80;25.59;100312.22;5131949;27;20037;-71
2021/06/09 14:38:30;;;;;;;2.50;1.13;;;;;;;27.83;24.91;100314.38;5130176;27;20032;-71
2021/06/09 14:40:58;;;;;;;1.80;1.00;;;;;;;27.78;25.03;100308.97;5132117;27;20027;-73
2021/06/09 14:43:24;;;;;;;2.15;1.20;;;;;;;27.75;25.38;100298.56;5131513;27;20109;-73
2021/06/09 14:45:50;;;;;;;4.55;1.10;;;;;;;27.78;25.60;100300.75;5130516;27;20028;-72
2021/06/09 14:48:34;;;;;;;1.48;1.10;;;;;;;27.82;25.18;100297.16;5131450;27;20565;-69
2021/06/09 14:51:16;;;;;;;1.70;1.27;;;;;;;27.60;24.90;100296.72;5130649;27;20028;-69
2021/06/09 14:53:42;;;;;;;4.15;1.10;;;;;;;27.59;25.59;100295.13;5131527;27;20035;-70
2021/06/09 14:56:08;;;;;;;3.83;1.25;;;;;;;27.61;25.57;100299.22;5131316;27;20105;-68
2021/06/09 14:58:33;;;;;;;4.70;1.30;;;;;;;27.60;25.40;100302.19;5131551;27;20024;-68
2021/06/09 15:01:00;;;;;;;3.63;1.50;;;;;;;27.52;25.19;100301.69;5131704;27;20035;-68
2021/06/09 15:03:27;;;;;;;4.60;1.23;;;;;;;27.44;25.77;100298.75;5130408;27;20024;-68
2021/06/09 15:05:52;;;;;;;4.43;1.95;;;;;;;27.34;25.43;100297.66;5130434;27;20078;-69
2021/06/09 15:08:17;;;;;;;2.90;1.48;;;;;;;27.21;25.75;100297.44;5123253;27;29931;-71
2021/06/09 15:10:43;;;;;;;3.17;1.27;;;;;;;27.15;25.77;100293.91;5117041;27;35088;-73
2021/06/09 15:13:08;;;;;;;5.13;1.20;;;;;;;27.09;25.95;100292.28;5116774;27;39509;-73
2021/06/09 15:15:34;;;;;;;4.25;1.30;;;;;;;27.08;26.09;100296.09;5116896;27;20047;-72
2021/06/09 15:17:59;;;;;;;7.20;1.60;;;;;;;27.10;26.21;100289.25;5116227;28;20433;-72
2021/06/09 15:20:25;;;;;;;3.63;1.30;;;;;;;27.07;26.02;100289.00;5117246;27;20362;-72
2021/06/09 15:22:50;;;;;;;2.78;1.60;;;;;;;26.99;26.03;100293.94;5117346;27;20024;-74
2021/06/09 15:25:15;;;;;;;6.35;1.40;;;;;;;26.92;26.14;100282.47;5110831;27;39600;-74
2021/06/09 15:27:41;;;;;;;4.13;1.52;;;;;;;26.87;26.28;100292.63;5094796;28;32176;-70
2021/06/09 15:30:07;;;;;;;4.82;1.25;;;;;;;26.93;26.70;100289.59;5095010;28;30235;-70
2021/06/09 15:32:32;;;;;;;2.67;1.25;;;;;;;27.06;26.76;100284.63;5095746;28;20067;-72
2021/06/09 15:34:58;;;;;;;1.35;1.20;;;;;;;27.12;26.85;100289.81;5094350;28;42812;-72
2021/06/09 15:37:23;;;;;;;3.33;1.20;;;;;;;27.11;26.70;100290.91;5093036;28;25223;-70
2021/06/09 15:39:48;;;;;;;4.03;1.48;;;;;;;27.06;26.76;100288.19;5077471;28;20051;-71
2021/06/09 15:42:14;;;;;;;4.90;1.50;;;;;;;27.01;26.61;100280.81;5093696;28;33877;-73
2021/06/09 15:44:39;;;;;;;6.80;1.50;;;;;;;27.05;26.94;100272.06;5095578;28;20038;-75
2021/06/09 15:47:05;;;;;;;2.42;1.20;;;;;;;27.08;26.79;100275.06;5093014;28;39437;-74
2021/06/09 15:49:30;;;;;;;3.58;1.33;;;;;;;26.93;26.63;100275.94;5095083;28;20029;-74
2021/06/09 15:51:56;;;;;;;2.80;1.50;;;;;;;26.91;26.98;100275.38;5094521;28;36009;-73
2021/06/09 15:54:23;;;;;;;4.63;1.27;;;;;;;26.95;26.89;100272.91;5095243;28;20032;-71
2021/06/09 15:56:48;;;;;;;3.17;1.27;;;;;;;26.88;26.80;100273.19;5093220;28;20044;-70
2021/06/09 15:59:14;;;;;;;6.18;2.03;;;;;;;26.79;26.58;100267.50;5092637;28;34675;-71
2021/06/09 16:01:39;;;;;;;2.22;1.42;;;;;;;26.69;26.92;100262.81;5093170;28;34207;-71
2021/06/09 16:04:05;;;;;;;3.75;1.48;;;;;;;26.60;26.84;100259.03;5094372;28;28747;-71
2021/06/09 16:06:30;;;;;;;3.97;1.50;;;;;;;26.50;26.77;100264.50;5076728;28;20028;-69
2021/06/09 16:08:55;;;;;;;5.75;1.30;;;;;;;26.42;26.77;100262.31;5094330;28;20024;-71
2021/06/09 16:11:21;;;;;;;8.77;1.80;;;;;;;26.34;26.90;100269.13;5093989;28;30207;-70
2021/06/09 16:13:46;;;;;;;4.10;1.40;;;;;;;26.23;26.75;100268.34;5075005;28;36972;-70
2021/06/09 16:16:13;;;;;;;3.80;1.23;;;;;;;26.08;26.87;100271.91;5093854;28;33093;-72
2021/06/09 16:18:38;;;;;;;4.88;1.58;;;;;;;25.92;27.02;100265.56;5093038;28;20119;-71
2021/06/09 16:21:04;;;;;;;3.03;1.60;;;;;;;25.85;27.19;100265.81;5093307;28;20045;-71
2021/06/09 16:23:30;;;;;;;3.10;1.60;;;;;;;25.84;27.50;100269.63;5093156;28;20033;-70
2021/06/09 16:25:55;;;;;;;3.25;1.45;;;;;;;25.83;27.48;100262.56;5076020;28;20114;-71
2021/06/09 16:28:21;;;;;;;5.35;1.58;;;;;;;25.78;27.41;100264.44;5094234;28;20021;-69
2021/06/09 16:30:46;;;;;;;3.97;1.20;;;;;;;25.78;27.75;100264.44;5094508;28;20035;-70
2021/06/09 16:33:12;;;;;;;4.82;1.20;;;;;;;25.94;27.97;100263.38;5058989;28;20371;-69
2021/06/09 16:35:37;;;;;;;2.95;1.38;;;;;;;26.07;28.16;100261.25;5094252;28;20397;-68
2021/06/09 16:38:03;;;;;;;2.00;1.30;;;;;;;26.13;27.89;100258.22;5093142;28;32291;-69
2021/06/09 16:40:28;;;;;;;2.85;1.10;;;;;;;26.07;27.75;100255.78;5092743;28;20455;-68
2021/06/09 16:42:54;;;;;;;4.60;1.40;;;;;;;25.98;27.62;100256.28;5093329;28;37031;-68
2021/06/09 16:45:24;;;;;;;2.65;1.45;;;;;;;25.92;27.70;100254.66;5094016;28;20025;-67
2021/06/09 16:47:49;;;;;;;3.88;1.25;;;;;;;25.89;27.79;100263.38;5092929;28;20512;-69
2021/06/09 16:50:15;;;;;;;6.57;1.80;;;;;;;25.80;27.74;100262.28;5093545;28;20132;-68